createdAt,value
2023-04-16T00:01:58.934Z,44.76
2023-04-16T00:04:26.466Z,44.22
2023-04-16T00:06:54.303Z,44.07
2023-04-16T00:09:21.423Z,43.46
2023-04-16T00:11:48.733Z,42.68
2023-04-16T00:14:15.744Z,41.75
2023-04-16T00:16:42.885Z,41.44
2023-04-16T00:19:10.494Z,41.12
2023-04-16T00:21:38.407Z,40.76
2023-04-16T00:24:05.859Z,40.33
2023-04-16T00:26:33.049Z,40.01
2023-04-16T00:29:00.762Z,39.87
2023-04-16T00:31:32.045Z,39.34
2023-04-16T00:33:59.133Z,39.15
2023-04-16T00:36:27.177Z,38.84
2023-04-16T00:38:55.177Z,38.82
2023-04-16T00:41:22.882Z,37.84
2023-04-16T00:43:50.581Z,36.90
2023-04-16T00:46:19.014Z,36.32
2023-04-16T00:48:46.795Z,36.10
2023-04-16T00:51:14.399Z,35.81
2023-04-16T00:53:42.573Z,35.02
2023-04-16T00:56:09.996Z,34.47
2023-04-16T00:58:37.253Z,34.93
2023-04-16T01:01:04.716Z,34.18
2023-04-16T01:03:37.356Z,33.89
2023-04-16T01:06:05.106Z,33.68
2023-04-16T01:08:32.430Z,32.81
2023-04-16T01:10:59.567Z,32.07
2023-04-16T01:13:27.071Z,31.47
2023-04-16T01:15:54.255Z,31.04
2023-04-16T01:18:22.039Z,30.16
2023-04-16T01:20:50.239Z,29.36
2023-04-16T01:23:18.682Z,29.42
2023-04-16T01:25:46.901Z,28.99
2023-04-16T01:28:14.343Z,29.67
2023-04-16T01:30:41.947Z,28.79
2023-04-16T01:33:38.345Z,28.17
2023-04-16T01:36:07.147Z,26.50
2023-04-16T01:38:34.471Z,25.35
2023-04-16T01:41:01.861Z,24.17
2023-04-16T01:43:29.491Z,24.27
2023-04-16T01:46:11.163Z,24.21
2023-04-16T01:48:38.210Z,24.36
2023-04-16T01:51:05.624Z,23.77
2023-04-16T01:53:34.340Z,23.97
2023-04-16T01:56:02.873Z,23.77
2023-04-16T01:58:31.837Z,22.66
2023-04-16T02:00:59.358Z,23.73
2023-04-16T02:03:27.509Z,23.22
2023-04-16T02:05:55.422Z,23.03
2023-04-16T02:08:23.169Z,23.09
2023-04-16T02:10:50.695Z,22.62
2023-04-16T02:13:18.096Z,22.35
2023-04-16T02:15:48.245Z,22.23
2023-04-16T02:18:19.940Z,21.94
2023-04-16T02:20:49.229Z,22.34
2023-04-16T02:23:17.040Z,21.71
2023-04-16T02:25:46.120Z,21.65
2023-04-16T02:28:15.761Z,21.39
2023-04-16T02:30:44.501Z,21.58
2023-04-16T02:33:13.401Z,21.04
2023-04-16T02:35:50.944Z,21.40
2023-04-16T02:38:18.262Z,21.28
2023-04-16T02:40:45.524Z,21.41
2023-04-16T02:43:12.930Z,22.12
2023-04-16T02:45:40.380Z,22.70
2023-04-16T02:48:08.757Z,22.74
2023-04-16T02:50:36.483Z,22.25
2023-04-16T02:53:04.086Z,22.88
2023-04-16T02:55:31.481Z,22.90
2023-04-16T02:57:58.809Z,22.63
2023-04-16T03:00:26.317Z,22.85
2023-04-16T03:02:54.195Z,22.70
2023-04-16T03:05:21.475Z,23.26
2023-04-16T03:07:50.452Z,23.82
2023-04-16T03:10:17.602Z,23.43
2023-04-16T03:12:44.639Z,23.71
2023-04-16T03:15:12.056Z,23.20
2023-04-16T03:17:39.695Z,24.10
2023-04-16T03:20:07.472Z,24.15
2023-04-16T03:22:35.131Z,23.82
2023-04-16T03:25:02.348Z,23.88
2023-04-16T03:27:31.395Z,24.14
2023-04-16T03:29:58.790Z,24.08
2023-04-16T03:32:26.421Z,22.15
2023-04-16T03:34:53.796Z,22.93
2023-04-16T03:37:21.596Z,22.89
2023-04-16T03:39:50.928Z,23.03
2023-04-16T03:42:18.625Z,22.29
2023-04-16T03:44:46.114Z,22.65
2023-04-16T03:47:15.532Z,22.76
2023-04-16T03:49:44.349Z,23.26
2023-04-16T03:52:12.385Z,23.21
2023-04-16T03:54:40.105Z,23.27
2023-04-16T03:57:19.416Z,23.82
2023-04-16T03:59:46.759Z,24.09
2023-04-16T04:02:13.952Z,24.09
2023-04-16T04:04:42.979Z,24.37
2023-04-16T04:07:10.814Z,23.69
2023-04-16T04:09:38.015Z,24.79
2023-04-16T04:12:05.481Z,25.65
2023-04-16T04:14:39.222Z,25.33
2023-04-16T04:17:08.308Z,24.89
2023-04-16T04:19:36.263Z,24.86
2023-04-16T04:22:04.415Z,24.77
2023-04-16T04:24:32.164Z,24.67
2023-04-16T04:26:59.290Z,24.18
2023-04-16T04:29:27.501Z,24.75
2023-04-16T04:31:55.461Z,24.00
2023-04-16T04:34:23.607Z,23.77
2023-04-16T04:36:51.105Z,23.25
2023-04-16T04:39:21.227Z,24.74
2023-04-16T04:41:51.885Z,25.72
2023-04-16T04:44:20.090Z,25.10
2023-04-16T04:46:47.468Z,25.28
2023-04-16T04:49:14.612Z,25.29
2023-04-16T04:51:42.176Z,25.68
2023-04-16T04:54:09.930Z,26.31
2023-04-16T04:56:37.189Z,26.52
2023-04-16T04:59:04.272Z,25.53
2023-04-16T05:01:31.751Z,26.07
2023-04-16T05:03:58.795Z,26.38
2023-04-16T05:06:28.387Z,26.14
2023-04-16T05:08:56.867Z,25.77
2023-04-16T05:11:24.650Z,24.65
2023-04-16T05:13:51.807Z,25.05
2023-04-16T05:16:18.867Z,24.64
2023-04-16T05:18:46.618Z,25.17
2023-04-16T05:21:13.683Z,24.66
2023-04-16T05:23:41.854Z,24.55
2023-04-16T05:26:09.142Z,24.59
2023-04-16T05:28:36.812Z,24.99
2023-04-16T05:31:03.861Z,25.25
2023-04-16T05:33:31.050Z,24.23
2023-04-16T05:35:58.314Z,24.82
2023-04-16T05:38:25.349Z,25.82
2023-04-16T05:40:52.707Z,25.38
2023-04-16T05:43:20.041Z,26.32
2023-04-16T05:45:47.507Z,25.29
2023-04-16T05:48:15.052Z,26.18
2023-04-16T05:50:42.255Z,25.73
2023-04-16T05:53:09.979Z,26.97
2023-04-16T05:55:37.039Z,27.46
2023-04-16T05:58:05.160Z,29.09
2023-04-16T06:00:32.948Z,29.74
2023-04-16T06:03:00.493Z,30.37
2023-04-16T06:05:29.264Z,30.89
2023-04-16T06:07:56.495Z,31.48
2023-04-16T06:10:23.813Z,32.92
2023-04-16T06:12:51.033Z,32.84
2023-04-16T06:15:18.116Z,33.09
2023-04-16T06:17:45.875Z,33.04
2023-04-16T06:20:13.377Z,33.90
2023-04-16T06:22:40.673Z,33.54
2023-04-16T06:25:08.428Z,33.97
2023-04-16T06:27:35.786Z,34.90
2023-04-16T06:30:02.949Z,34.33
2023-04-16T06:32:30.703Z,34.74
2023-04-16T06:34:58.453Z,35.66
2023-04-16T06:37:26.029Z,36.19
2023-04-16T06:39:53.486Z,36.02
2023-04-16T06:42:20.495Z,36.32
2023-04-16T06:44:48.065Z,35.59
2023-04-16T06:47:16.393Z,36.07
2023-04-16T06:49:43.844Z,36.09
2023-04-16T06:52:11.804Z,36.25
2023-04-16T06:54:39.441Z,36.47
2023-04-16T06:57:07.121Z,36.35
2023-04-16T06:59:34.611Z,36.56
2023-04-16T07:02:02.131Z,36.51
2023-04-16T07:04:29.495Z,35.48
2023-04-16T07:06:57.064Z,34.80
2023-04-16T07:09:24.653Z,35.20
2023-04-16T07:11:51.948Z,35.92
2023-04-16T07:14:19.053Z,35.87
2023-04-16T07:16:46.790Z,36.66
2023-04-16T07:19:14.220Z,35.86
2023-04-16T07:21:44.168Z,35.69
2023-04-16T07:24:11.554Z,35.49
2023-04-16T07:26:38.903Z,35.40
2023-04-16T07:29:06.138Z,35.46
2023-04-16T07:31:33.561Z,35.66
2023-04-16T07:34:00.974Z,35.61
2023-04-16T07:36:29.265Z,35.05
2023-04-16T07:38:56.695Z,35.39
2023-04-16T07:41:24.102Z,35.32
2023-04-16T07:43:51.222Z,34.55
2023-04-16T07:46:18.718Z,35.04
2023-04-16T07:48:46.015Z,35.42
2023-04-16T07:51:14.057Z,35.79
2023-04-16T07:53:43.046Z,35.45
2023-04-16T07:56:10.105Z,36.03
2023-04-16T07:58:37.228Z,36.15
2023-04-16T08:01:04.349Z,36.20
2023-04-16T08:03:32.425Z,36.54
2023-04-16T08:05:59.914Z,35.99
2023-04-16T08:08:27.807Z,36.34
2023-04-16T08:10:55.886Z,36.75
2023-04-16T08:13:23.808Z,36.90
2023-04-16T08:15:51.648Z,37.53
2023-04-16T08:18:18.945Z,37.68
2023-04-16T08:20:46.228Z,37.82
2023-04-16T08:23:13.403Z,37.99
2023-04-16T08:25:40.823Z,37.60
2023-04-16T08:28:08.506Z,38.66
2023-04-16T08:30:35.886Z,38.33
2023-04-16T08:33:03.000Z,38.79
2023-04-16T08:35:30.211Z,38.89
2023-04-16T08:37:58.058Z,38.93
2023-04-16T08:40:29.196Z,38.46
2023-04-16T08:42:58.870Z,38.91
2023-04-16T08:45:26.721Z,38.86
2023-04-16T08:47:54.190Z,38.91
2023-04-16T08:50:26.190Z,39.06
2023-04-16T08:52:58.247Z,38.76
2023-04-16T08:55:39.986Z,38.83
2023-04-16T08:58:20.855Z,38.75
2023-04-16T09:00:48.774Z,38.37
2023-04-16T09:03:15.806Z,38.29
2023-04-16T09:05:43.489Z,38.64
2023-04-16T09:08:10.620Z,38.43
2023-04-16T09:10:37.719Z,37.96
2023-04-16T09:13:05.055Z,37.99
2023-04-16T09:15:34.983Z,38.04
2023-04-16T09:18:02.320Z,38.35
2023-04-16T09:20:29.948Z,38.40
2023-04-16T09:22:57.216Z,38.04
2023-04-16T09:25:24.443Z,38.57
2023-04-16T09:27:51.530Z,38.63
2023-04-16T09:30:23.280Z,38.66
2023-04-16T09:32:51.499Z,38.07
2023-04-16T09:35:19.660Z,37.86
2023-04-16T09:38:05.132Z,37.68
2023-04-16T09:40:32.514Z,37.92
2023-04-16T09:43:00.896Z,38.20
2023-04-16T09:45:32.360Z,36.65
2023-04-16T09:48:03.330Z,35.95
2023-04-16T09:50:30.752Z,35.22
2023-04-16T09:52:58.772Z,34.69
2023-04-16T09:55:28.726Z,33.19
2023-04-16T09:58:01.105Z,33.22
2023-04-16T10:00:29.441Z,32.49
2023-04-16T10:03:07.210Z,30.91
2023-04-16T10:05:34.950Z,29.59
2023-04-16T10:08:02.420Z,29.54
2023-04-16T10:10:29.971Z,28.69
2023-04-16T10:12:57.666Z,29.17
2023-04-16T10:15:24.742Z,28.89
2023-04-16T10:17:51.976Z,28.44
2023-04-16T10:20:19.544Z,28.04
2023-04-16T10:22:47.032Z,27.96
2023-04-16T10:25:14.198Z,28.05
2023-04-16T10:27:41.571Z,27.93
2023-04-16T10:30:09.261Z,27.74
2023-04-16T10:32:37.774Z,27.86
2023-04-16T10:35:05.956Z,28.53
2023-04-16T10:37:33.111Z,28.69
2023-04-16T10:40:00.886Z,28.02
2023-04-16T10:42:28.157Z,27.98
2023-04-16T10:44:55.609Z,26.95
2023-04-16T10:47:26.059Z,26.98
2023-04-16T10:49:53.169Z,25.84
2023-04-16T10:52:22.086Z,26.17
2023-04-16T10:54:49.694Z,26.17
2023-04-16T10:57:18.084Z,26.41
2023-04-16T10:59:45.755Z,25.91
2023-04-16T11:02:17.310Z,26.68
2023-04-16T11:04:48.530Z,27.59
2023-04-16T11:07:21.616Z,28.37
2023-04-16T11:09:56.105Z,29.05
2023-04-16T11:12:24.369Z,29.30
2023-04-16T11:14:52.724Z,29.50
2023-04-16T11:17:20.486Z,29.42
2023-04-16T11:19:48.094Z,29.63
2023-04-16T11:22:17.199Z,30.21
2023-04-16T11:24:45.646Z,29.69
2023-04-16T11:27:13.950Z,28.53
2023-04-16T11:29:41.578Z,28.38
2023-04-16T11:32:08.790Z,28.75
2023-04-16T11:34:44.817Z,28.74
2023-04-16T11:37:12.107Z,28.67
2023-04-16T11:39:50.159Z,28.20
2023-04-16T11:42:23.722Z,29.01
2023-04-16T11:44:55.430Z,30.13
2023-04-16T11:47:26.255Z,31.17
2023-04-16T11:49:53.546Z,31.76
2023-04-16T11:52:30.668Z,31.88
2023-04-16T11:54:58.544Z,31.90
2023-04-16T11:57:30.203Z,32.19
2023-04-16T12:00:02.099Z,31.67
2023-04-16T12:02:41.298Z,31.23
2023-04-16T12:05:30.822Z,31.21
2023-04-16T12:07:58.614Z,30.36
2023-04-16T12:10:26.946Z,29.95
2023-04-16T12:12:54.420Z,30.34
2023-04-16T12:15:21.557Z,30.35
2023-04-16T12:17:50.560Z,30.60
2023-04-16T12:20:18.286Z,30.45
2023-04-16T12:22:47.313Z,30.66
2023-04-16T12:25:16.025Z,30.55
2023-04-16T12:27:48.006Z,30.33
2023-04-16T12:30:16.545Z,30.70
2023-04-16T12:32:44.558Z,30.65
2023-04-16T12:35:12.364Z,30.25
2023-04-16T12:37:40.103Z,30.26
2023-04-16T12:40:08.632Z,29.57
2023-04-16T12:42:36.061Z,29.43
2023-04-16T12:45:04.045Z,29.52
2023-04-16T12:47:32.087Z,29.54
2023-04-16T12:49:59.406Z,29.63
2023-04-16T12:52:27.285Z,30.22
2023-04-16T12:54:54.997Z,30.04
2023-04-16T12:57:28.272Z,30.23
2023-04-16T12:59:56.730Z,30.42
2023-04-16T13:02:24.350Z,30.52
2023-04-16T13:04:54.606Z,31.09
2023-04-16T13:07:22.057Z,32.06
2023-04-16T13:09:49.734Z,32.35
2023-04-16T13:12:17.158Z,32.86
2023-04-16T13:14:45.098Z,33.33
2023-04-16T13:17:12.653Z,33.60
2023-04-16T13:19:40.011Z,34.01
2023-04-16T13:22:07.400Z,34.14
2023-04-16T13:24:35.011Z,34.18
2023-04-16T13:27:02.164Z,34.02
2023-04-16T13:29:29.859Z,34.36
2023-04-16T13:31:57.464Z,34.66
2023-04-16T13:34:24.553Z,34.85
2023-04-16T13:36:52.251Z,35.17
2023-04-16T13:39:19.256Z,34.83
2023-04-16T13:41:49.074Z,35.19
2023-04-16T13:44:16.446Z,35.38
2023-04-16T13:46:47.662Z,35.39
2023-04-16T13:49:15.095Z,35.35
2023-04-16T13:51:45.770Z,35.41
2023-04-16T13:54:13.032Z,35.45
2023-04-16T13:56:40.588Z,35.43
2023-04-16T13:59:08.094Z,35.94
2023-04-16T14:01:35.637Z,35.99
2023-04-16T14:04:06.860Z,36.08
2023-04-16T14:06:34.835Z,36.29
2023-04-16T14:09:02.196Z,36.68
2023-04-16T14:11:29.259Z,36.45
2023-04-16T14:13:56.489Z,36.44
2023-04-16T14:16:23.727Z,36.93
2023-04-16T14:18:52.102Z,37.47
2023-04-16T14:21:19.666Z,37.24
2023-04-16T14:23:46.759Z,37.75
2023-04-16T14:26:14.468Z,37.87
2023-04-16T14:28:41.947Z,38.41
2023-04-16T14:31:09.600Z,38.79
2023-04-16T14:33:37.061Z,38.83
2023-04-16T14:36:04.400Z,39.50
2023-04-16T14:38:32.083Z,40.05
2023-04-16T14:41:00.131Z,40.17
2023-04-16T14:43:27.552Z,40.32
2023-04-16T14:45:58.250Z,40.60
2023-04-16T14:48:26.086Z,40.40
2023-04-16T14:50:53.930Z,40.68
2023-04-16T14:53:23.642Z,41.25
2023-04-16T14:55:51.960Z,41.58
2023-04-16T14:58:19.255Z,42.10
2023-04-16T15:00:46.864Z,41.90
2023-04-16T15:03:14.524Z,41.92
2023-04-16T15:05:41.707Z,41.82
2023-04-16T15:08:09.046Z,42.00
2023-04-16T15:10:37.697Z,42.01
2023-04-16T15:13:05.612Z,41.30
2023-04-16T15:15:33.010Z,41.06
2023-04-16T15:18:00.452Z,40.66
2023-04-16T15:20:28.115Z,40.18
2023-04-16T15:22:55.432Z,39.93
2023-04-16T15:25:24.360Z,40.17
2023-04-16T15:27:52.081Z,39.89
2023-04-16T15:30:19.477Z,39.99
2023-04-16T15:32:47.093Z,40.22
2023-04-16T15:35:14.498Z,40.07
2023-04-16T15:37:42.214Z,39.70
2023-04-16T15:40:09.591Z,39.99
2023-04-16T15:42:37.333Z,39.90
2023-04-16T15:45:05.157Z,39.53
2023-04-16T15:47:32.866Z,39.43
2023-04-16T15:50:00.050Z,39.18
2023-04-16T15:52:27.378Z,38.89
2023-04-16T15:54:55.258Z,38.93
2023-04-16T15:57:22.333Z,38.46
2023-04-16T16:00:05.438Z,38.41
2023-04-16T16:02:34.672Z,38.00
2023-04-16T16:05:02.957Z,37.95
2023-04-16T16:07:30.845Z,38.19
2023-04-16T16:09:59.451Z,37.74
2023-04-16T16:12:27.300Z,37.96
2023-04-16T16:14:54.513Z,37.35
2023-04-16T16:17:21.844Z,37.16
2023-04-16T16:19:49.088Z,37.50
2023-04-16T16:22:20.230Z,37.22
2023-04-16T16:24:53.598Z,37.78
2023-04-16T16:27:20.801Z,37.28
2023-04-16T16:29:48.144Z,36.85
2023-04-16T16:32:16.151Z,37.15
2023-04-16T16:34:43.942Z,37.45
2023-04-16T16:37:11.397Z,37.20
2023-04-16T16:39:39.028Z,37.55
2023-04-16T16:42:08.793Z,37.27
2023-04-16T16:44:36.488Z,37.20
2023-04-16T16:47:04.011Z,37.49
2023-04-16T16:49:31.353Z,36.70
2023-04-16T16:51:58.747Z,37.26
2023-04-16T16:54:25.878Z,36.67
2023-04-16T16:56:53.437Z,37.09
2023-04-16T16:59:20.520Z,36.71
2023-04-16T17:01:48.004Z,36.82
2023-04-16T17:04:18.583Z,36.50
2023-04-16T17:06:47.746Z,36.82
2023-04-16T17:09:14.953Z,36.45
2023-04-16T17:11:42.086Z,36.61
2023-04-16T17:14:09.074Z,36.40
2023-04-16T17:16:36.566Z,36.94
2023-04-16T17:19:04.022Z,36.51
2023-04-16T17:21:32.938Z,36.74
2023-04-16T17:24:00.421Z,36.29
2023-04-16T17:26:28.080Z,36.54
2023-04-16T17:28:57.174Z,36.26
2023-04-16T17:31:26.737Z,36.32
2023-04-16T17:33:54.429Z,36.28
2023-04-16T17:36:22.685Z,36.16
2023-04-16T17:38:50.643Z,36.23
2023-04-16T17:41:18.104Z,36.53
2023-04-16T17:43:48.971Z,36.66
2023-04-16T17:46:16.649Z,36.06
2023-04-16T17:48:44.356Z,36.62
2023-04-16T17:51:11.885Z,36.39
2023-04-16T17:53:39.607Z,36.41
2023-04-16T17:56:07.060Z,36.23
2023-04-16T17:58:35.052Z,36.26
2023-04-16T18:01:03.467Z,36.31
2023-04-16T18:03:31.543Z,36.88
2023-04-16T18:05:59.023Z,36.79
2023-04-16T18:08:26.711Z,37.09
2023-04-16T18:10:55.355Z,37.26
2023-04-16T18:13:24.018Z,36.91
2023-04-16T18:15:51.498Z,37.16
2023-04-16T18:18:20.305Z,37.15
2023-04-16T18:20:47.333Z,37.04
2023-04-16T18:23:14.657Z,37.08
2023-04-16T18:25:41.836Z,37.06
2023-04-16T18:28:09.581Z,36.98
2023-04-16T18:30:40.047Z,37.30
2023-04-16T18:33:34.394Z,36.86
2023-04-16T18:35:55.281Z,36.84
2023-04-16T18:38:22.665Z,36.95
2023-04-16T18:40:49.994Z,36.87
2023-04-16T18:43:17.407Z,36.48
2023-04-16T18:45:44.519Z,36.67
2023-04-16T18:48:11.653Z,36.42
2023-04-16T18:50:38.760Z,36.48
2023-04-16T18:53:06.215Z,37.16
2023-04-16T18:55:33.390Z,37.22
2023-04-16T18:58:00.396Z,37.41
2023-04-16T19:00:28.025Z,37.45
2023-04-16T19:02:55.248Z,37.92
2023-04-16T19:05:22.725Z,38.20
2023-04-16T19:07:50.062Z,38.23
2023-04-16T19:10:17.211Z,38.44
2023-04-16T19:12:44.740Z,38.84
2023-04-16T19:15:11.856Z,39.02
2023-04-16T19:17:39.579Z,38.90
2023-04-16T19:20:10.976Z,39.31
2023-04-16T19:22:38.323Z,39.56
2023-04-16T19:25:06.898Z,39.66
2023-04-16T19:27:34.644Z,39.73
2023-04-16T19:30:02.981Z,39.92
2023-04-16T19:32:30.830Z,40.23
2023-04-16T19:34:58.208Z,40.17
2023-04-16T19:37:25.517Z,40.04
2023-04-16T19:39:52.655Z,40.09
2023-04-16T19:42:20.048Z,40.50
2023-04-16T19:44:47.855Z,40.55
2023-04-16T19:47:15.215Z,40.72
2023-04-16T19:49:43.443Z,40.71
2023-04-16T19:52:10.764Z,41.28
2023-04-16T19:54:38.186Z,41.14
2023-04-16T19:57:05.860Z,41.37
2023-04-16T19:59:33.032Z,41.41
2023-04-16T20:02:00.458Z,41.24
2023-04-16T20:04:27.972Z,41.40
2023-04-16T20:06:55.630Z,41.35
2023-04-16T20:09:23.362Z,41.27
2023-04-16T20:11:51.617Z,41.58
2023-04-16T20:14:18.903Z,41.61
2023-04-16T20:16:46.330Z,41.56
2023-04-16T20:19:19.210Z,41.50
2023-04-16T20:21:46.572Z,41.81
2023-04-16T20:24:14.990Z,41.73
2023-04-16T20:26:42.528Z,41.84
2023-04-16T20:29:10.425Z,42.14
2023-04-16T20:31:37.827Z,41.97
2023-04-16T20:34:05.327Z,41.79
2023-04-16T20:36:32.702Z,42.18
2023-04-16T20:39:02.167Z,42.21
2023-04-16T20:41:29.971Z,42.18
2023-04-16T20:43:57.459Z,42.32
2023-04-16T20:46:25.023Z,42.24
2023-04-16T20:48:52.369Z,42.39
2023-04-16T20:51:19.782Z,42.48
2023-04-16T20:53:46.796Z,42.76
2023-04-16T20:56:16.806Z,42.83
2023-04-16T20:58:44.012Z,42.44
2023-04-16T21:01:11.785Z,42.52
2023-04-16T21:03:39.288Z,42.33
2023-04-16T21:06:06.776Z,42.65
2023-04-16T21:08:35.187Z,42.26
2023-04-16T21:11:02.569Z,42.09
2023-04-16T21:13:30.153Z,42.44
2023-04-16T21:15:57.346Z,42.14
2023-04-16T21:18:24.870Z,41.95
2023-04-16T21:20:52.221Z,42.12
2023-04-16T21:23:19.553Z,42.08
2023-04-16T21:25:46.938Z,42.15
2023-04-16T21:28:14.510Z,42.05
2023-04-16T21:30:42.383Z,42.15
2023-04-16T21:33:11.917Z,42.25
2023-04-16T21:35:39.284Z,42.23
2023-04-16T21:38:06.700Z,42.28
2023-04-16T21:40:34.141Z,42.52
2023-04-16T21:43:01.302Z,42.61
2023-04-16T21:45:30.453Z,42.60
2023-04-16T21:47:58.000Z,42.73
2023-04-16T21:50:25.699Z,42.94
2023-04-16T21:52:54.463Z,43.26
2023-04-16T21:55:22.024Z,42.94
2023-04-16T21:57:49.341Z,43.01
2023-04-16T22:00:17.881Z,43.33
2023-04-16T22:02:45.269Z,43.29
2023-04-16T22:05:12.542Z,43.45
2023-04-16T22:07:39.952Z,43.37
2023-04-16T22:10:08.790Z,43.77
2023-04-16T22:12:39.438Z,43.76
2023-04-16T22:15:07.756Z,44.14
2023-04-16T22:17:35.382Z,44.55
2023-04-16T22:20:07.187Z,44.59
2023-04-16T22:22:34.463Z,44.72
2023-04-16T22:25:02.299Z,45.82
2023-04-16T22:27:29.854Z,45.76
2023-04-16T22:29:57.162Z,45.93
2023-04-16T22:32:24.793Z,46.22
2023-04-16T22:34:52.194Z,45.85
2023-04-16T22:37:19.451Z,46.13
2023-04-16T22:39:46.535Z,45.82
2023-04-16T22:42:13.655Z,45.90
2023-04-16T22:44:40.753Z,46.06
2023-04-16T22:47:07.954Z,45.81
2023-04-16T22:49:35.401Z,45.94
2023-04-16T22:52:02.859Z,46.10
2023-04-16T22:54:30.615Z,46.25
2023-04-16T22:56:58.038Z,46.52
2023-04-16T22:59:25.268Z,46.54
2023-04-16T23:01:52.399Z,47.09
2023-04-16T23:04:20.155Z,47.44
2023-04-16T23:06:47.617Z,47.48
2023-04-16T23:09:15.240Z,47.90
2023-04-16T23:11:42.601Z,47.59
2023-04-16T23:14:09.727Z,47.71
2023-04-16T23:16:36.639Z,47.54
2023-04-16T23:19:04.018Z,47.50
2023-04-16T23:21:32.214Z,47.56
2023-04-16T23:23:59.554Z,47.54
2023-04-16T23:26:27.045Z,47.10
2023-04-16T23:28:54.107Z,46.69
2023-04-16T23:31:21.212Z,46.65
2023-04-16T23:33:48.648Z,46.68
2023-04-16T23:36:16.312Z,46.06
2023-04-16T23:38:43.560Z,45.40
2023-04-16T23:41:11.116Z,44.16
2023-04-16T23:43:40.343Z,42.42
2023-04-16T23:46:07.992Z,40.08
2023-04-16T23:48:35.117Z,40.11
2023-04-16T23:51:02.453Z,39.26
2023-04-16T23:53:29.597Z,38.65
2023-04-16T23:55:56.930Z,38.72
2023-04-16T23:58:24.670Z,38.57
